Time;durP1;ratioP1;P1;durP2;ratioP2;P2;SDS_P1;SDS_P2;PMS_P1;PMS_P2;Temp;Humidity;BMP_temperature;BMP_pressure;BME280_temperature;BME280_humidity;BME280_pressure;Samples;Min_cycle;Max_cycle;Signal;HPM_P1;HPM_P2
2019/12/14 00:04:08;;;;;;;3.1;1.3;;;;;;;;;;;;;
2019/12/14 00:04:42;;;;;;;2.2;0.9;;;;;;;;;;;;;
2019/12/14 00:07:06;;;;;;;3.5;0.9;;;;;;;;;;;;;
2019/12/14 00:09:39;;;;;;;2;0.9;;;;;;;;;;;;;
2019/12/14 00:12:01;;;;;;;2.1;0.9;;;;;;;;;;;;;
2019/12/14 00:14:29;;;;;;;1.8;0.9;;;;;;;;;;;;;
2019/12/14 00:16:57;;;;;;;2.7;1;;;;;;;;;;;;;
2019/12/14 00:19:17;;;;;;;1.6;1.1;;;;;;;;;;;;;
2019/12/14 00:21:41;;;;;;;1.8;0.9;;;;;;;;;;;;;
2019/12/14 00:24:14;;;;;;;1.9;0.6;;;;;;;;;;;;;
2019/12/14 00:26:42;;;;;;;2.2;0.8;;;;;;;;;;;;;
2019/12/14 00:29:07;;;;;;;1.6;0.8;;;;;;;;;;;;;
2019/12/14 00:31:32;;;;;;;2.3;0.7;;;;;;;;;;;;;
2019/12/14 00:33:57;;;;;;;2.3;0.7;;;;;;;;;;;;;
2019/12/14 00:36:21;;;;;;;0.5;0.4;;;;;;;;;;;;;
2019/12/14 00:38:48;;;;;;;1.8;0.7;;;;;;;;;;;;;
2019/12/14 00:41:13;;;;;;;1.8;0.8;;;;;;;;;;;;;
2019/12/14 00:43:38;;;;;;;1.3;0.6;;;;;;;;;;;;;
2019/12/14 00:46:11;;;;;;;1.3;0.6;;;;;;;;;;;;;
2019/12/14 00:48:35;;;;;;;1.2;0.6;;;;;;;;;;;;;
2019/12/14 00:51:02;;;;;;;1.4;0.6;;;;;;;;;;;;;
2019/12/14 00:53:27;;;;;;;1.4;0.6;;;;;;;;;;;;;
2019/12/14 00:55:52;;;;;;;1.4;0.8;;;;;;;;;;;;;
2019/12/14 00:58:20;;;;;;;2.9;1.7;;;;;;;;;;;;;
2019/12/14 01:00:42;;;;;;;3.1;1.2;;;;;;;;;;;;;
2019/12/14 01:03:15;;;;;;;1.8;0.7;;;;;;;;;;;;;
2019/12/14 01:05:41;;;;;;;2.2;1.5;;;;;;;;;;;;;
2019/12/14 01:08:23;;;;;;;1.9;1.6;;;;;;;;;;;;;
2019/12/14 01:12:58;;;;;;;2.8;1.9;;;;;;;;;;;;;
2019/12/14 01:15:27;;;;;;;5.5;2.1;;;;;;;;;;;;;
2019/12/14 01:17:51;;;;;;;4.5;2.4;;;;;;;;;;;;;
2019/12/14 01:20:16;;;;;;;3.6;2.2;;;;;;;;;;;;;
2019/12/14 01:22:41;;;;;;;2.6;1.2;;;;;;;;;;;;;
2019/12/14 01:25:10;;;;;;;1.3;0.7;;;;;;;;;;;;;
2019/12/14 01:27:32;;;;;;;0.7;0.5;;;;;;;;;;;;;
2019/12/14 01:29:58;;;;;;;1.6;0.8;;;;;;;;;;;;;
2019/12/14 01:32:23;;;;;;;0.9;0.6;;;;;;;;;;;;;
2019/12/14 01:34:51;;;;;;;1.3;0.7;;;;;;;;;;;;;
2019/12/14 01:37:14;;;;;;;1.9;0.7;;;;;;;;;;;;;
2019/12/14 01:39:39;;;;;;;1.7;0.9;;;;;;;;;;;;;
2019/12/14 01:42:03;;;;;;;2.5;1.1;;;;;;;;;;;;;
2019/12/14 01:44:32;;;;;;;2.3;0.9;;;;;;;;;;;;;
2019/12/14 01:46:57;;;;;;;3.6;1.4;;;;;;;;;;;;;
2019/12/14 01:49:20;;;;;;;3.5;1.5;;;;;;;;;;;;;
2019/12/14 01:51:50;;;;;;;4.2;1.6;;;;;;;;;;;;;
2019/12/14 01:54:16;;;;;;;3.2;1.6;;;;;;;;;;;;;
2019/12/14 01:56:38;;;;;;;1.9;1;;;;;;;;;;;;;
2019/12/14 01:59:03;;;;;;;2.6;1.2;;;;;;;;;;;;;
2019/12/14 02:03:56;;;;;;;1.8;1;;;;;;;;;;;;;
2019/12/14 02:06:22;;;;;;;2.6;1.1;;;;;;;;;;;;;
2019/12/14 02:08:45;;;;;;;2.2;1.1;;;;;;;;;;;;;
2019/12/14 02:11:09;;;;;;;2;0.9;;;;;;;;;;;;;
2019/12/14 02:13:35;;;;;;;1.3;0.8;;;;;;;;;;;;;
2019/12/14 02:16:04;;;;;;;2.1;0.7;;;;;;;;;;;;;
2019/12/14 02:18:27;;;;;;;1.4;0.7;;;;;;;;;;;;;
2019/12/14 02:20:56;;;;;;;2.6;0.9;;;;;;;;;;;;;
2019/12/14 02:23:19;;;;;;;1.4;0.7;;;;;;;;;;;;;
2019/12/14 02:25:43;;;;;;;1.6;0.8;;;;;;;;;;;;;
2019/12/14 02:28:08;;;;;;;1.5;0.8;;;;;;;;;;;;;
2019/12/14 02:30:40;;;;;;;2;0.7;;;;;;;;;;;;;
2019/12/14 02:33:03;;;;;;;1.4;0.8;;;;;;;;;;;;;
2019/12/14 02:35:30;;;;;;;1.6;0.7;;;;;;;;;;;;;
2019/12/14 02:38:19;;;;;;;1.8;0.7;;;;;;;;;;;;;
2019/12/14 02:40:48;;;;;;;1.4;0.8;;;;;;;;;;;;;
2019/12/14 02:43:10;;;;;;;1;0.7;;;;;;;;;;;;;
2019/12/14 02:45:37;;;;;;;1.8;0.8;;;;;;;;;;;;;
2019/12/14 02:48:19;;;;;;;1.8;0.8;;;;;;;;;;;;;
2019/12/14 02:50:41;;;;;;;2.3;1;;;;;;;;;;;;;
2019/12/14 02:53:10;;;;;;;2.2;1.1;;;;;;;;;;;;;
2019/12/14 02:55:34;;;;;;;2.2;1.1;;;;;;;;;;;;;
2019/12/14 02:58:01;;;;;;;2.4;1.5;;;;;;;;;;;;;
2019/12/14 03:00:28;;;;;;;2.2;1.3;;;;;;;;;;;;;
2019/12/14 03:02:53;;;;;;;2.6;1.2;;;;;;;;;;;;;
2019/12/14 03:05:17;;;;;;;2.9;1.2;;;;;;;;;;;;;
2019/12/14 03:07:41;;;;;;;2.4;1.3;;;;;;;;;;;;;
2019/12/14 03:10:06;;;;;;;2.4;1;;;;;;;;;;;;;
2019/12/14 03:13:17;;;;;;;2;1;;;;;;;;;;;;;
2019/12/14 03:14:58;;;;;;;1.9;0.9;;;;;;;;;;;;;
2019/12/14 03:17:22;;;;;;;1.8;0.9;;;;;;;;;;;;;
2019/12/14 03:19:46;;;;;;;2.1;1.1;;;;;;;;;;;;;
2019/12/14 03:22:13;;;;;;;2.1;1.2;;;;;;;;;;;;;
2019/12/14 03:24:38;;;;;;;2.1;1.3;;;;;;;;;;;;;
2019/12/14 03:27:33;;;;;;;3.4;1.1;;;;;;;;;;;;;
2019/12/14 03:29:31;;;;;;;2.5;1.2;;;;;;;;;;;;;
2019/12/14 03:31:58;;;;;;;3.5;1.4;;;;;;;;;;;;;
2019/12/14 03:34:21;;;;;;;3;1.4;;;;;;;;;;;;;
2019/12/14 03:36:46;;;;;;;3.2;1.3;;;;;;;;;;;;;
2019/12/14 03:39:10;;;;;;;2.3;1.1;;;;;;;;;;;;;
2019/12/14 03:41:36;;;;;;;2.4;1.3;;;;;;;;;;;;;
2019/12/14 03:44:02;;;;;;;1.6;1.1;;;;;;;;;;;;;
2019/12/14 03:46:32;;;;;;;1.8;1.1;;;;;;;;;;;;;
2019/12/14 03:48:59;;;;;;;1.7;0.9;;;;;;;;;;;;;
2019/12/14 03:51:19;;;;;;;1.5;0.8;;;;;;;;;;;;;
2019/12/14 03:53:44;;;;;;;1.8;0.7;;;;;;;;;;;;;
2019/12/14 03:56:18;;;;;;;2.1;0.6;;;;;;;;;;;;;
2019/12/14 03:58:46;;;;;;;1.5;0.8;;;;;;;;;;;;;
2019/12/14 04:02:31;;;;;;;0.8;0.5;;;;;;;2.27;80.01953;916.1895;;;;
2019/12/14 04:04:55;;;;;;;0.8;0.6;;;;;;;2.48;79.35449;916.1199;;;;
2019/12/14 04:07:20;;;;;;;1.8;0.6;;;;;;;2.69;77.26172;915.9943;;;;
2019/12/14 04:09:51;;;;;;;0.7;0.5;;;;;;;2.84;76.71777;916.0114;;;;
2019/12/14 04:12:19;;;;;;;0.8;0.6;;;;;;;2.71;77.4668;916.0131;;;;
2019/12/14 04:14:43;;;;;;;1.4;0.5;;;;;;;2.74;75.65723;916.0101;;;;
2019/12/14 04:17:09;;;;;;;1.7;0.7;;;;;;;2.85;74.92676;916.0106;;;;
2019/12/14 04:19:35;;;;;;;1.4;0.5;;;;;;;2.99;75.2627;915.9008;;;;
2019/12/14 04:22:13;;;;;;;0.7;0.5;;;;;;;3.02;74.92188;916.0089;;;;
2019/12/14 04:24:38;;;;;;;1.1;0.6;;;;;;;3.05;74.70215;916.0733;;;;
2019/12/14 04:27:12;;;;;;;1.7;0.5;;;;;;;3.02;73.12695;916.0544;;;;
2019/12/14 04:29:54;;;;;;;2.1;0.7;;;;;;;2.54;77.98633;915.9661;;;;
2019/12/14 04:32:16;;;;;;;1.7;0.7;;;;;;;2.62;77.20508;915.9863;;;;
2019/12/14 04:34:31;;;;;;;2;0.9;;;;;;;2.79;77.69531;915.9961;;;;
2019/12/14 04:37:15;;;;;;;1.9;0.9;;;;;;;2.93;78.0127;915.9849;;;;
2019/12/14 04:39:31;;;;;;;1.6;0.9;;;;;;;2.91;78.6709;915.9958;;;;
2019/12/14 04:41:58;;;;;;;2;0.9;;;;;;;2.9;79.36523;916.1011;;;;
2019/12/14 04:44:27;;;;;;;2.6;1;;;;;;;2.87;79.21289;916.1426;;;;
2019/12/14 04:46:56;;;;;;;1.7;0.9;;;;;;;2.91;79.86035;916.1325;;;;
2019/12/14 04:49:26;;;;;;;1.7;0.9;;;;;;;2.98;79.51367;916.1547;;;;
2019/12/14 04:52:01;;;;;;;2.4;1;;;;;;;2.88;77.59961;916.127;;;;
2019/12/14 04:54:32;;;;;;;1.3;0.7;;;;;;;3.05;77.11426;916.1275;;;;
2019/12/14 04:56:59;;;;;;;1.9;0.8;;;;;;;3.18;78.00293;915.8398;;;;
2019/12/14 04:59:28;;;;;;;2;1;;;;;;;3.27;76.97559;915.7709;;;;
2019/12/14 05:01:56;;;;;;;2.7;0.9;;;;;;;3.37;76.44336;915.9047;;;;
2019/12/14 05:04:23;;;;;;;1.8;0.9;;;;;;;3.46;76.15527;915.8301;;;;
2019/12/14 05:06:47;;;;;;;2.2;1.1;;;;;;;3.48;75.87891;915.8592;;;;
2019/12/14 05:09:19;;;;;;;1.6;0.7;;;;;;;3.46;73.11133;915.9025;;;;
2019/12/14 05:11:49;;;;;;;1.8;0.7;;;;;;;3.49;74.98242;915.8223;;;;
2019/12/14 05:14:15;;;;;;;1.3;0.8;;;;;;;3.61;73.64355;915.6533;;;;
2019/12/14 05:16:44;;;;;;;0.9;0.7;;;;;;;3.49;73.09668;915.6154;;;;
2019/12/14 05:19:06;;;;;;;1.4;0.7;;;;;;;3.47;73.17188;915.6186;;;;
2019/12/14 05:21:33;;;;;;;1.6;0.7;;;;;;;3.57;74.16504;915.6019;;;;
2019/12/14 05:24:00;;;;;;;1.3;0.6;;;;;;;3.48;73.76758;915.4109;;;;
2019/12/14 05:26:28;;;;;;;2.3;0.7;;;;;;;3.25;72.32324;915.5901;;;;
2019/12/14 05:28:52;;;;;;;0.9;0.6;;;;;;;3.12;72.67285;915.4807;;;;
2019/12/14 05:31:23;;;;;;;0.6;0.5;;;;;;;2.97;74.22949;915.2996;;;;
2019/12/14 05:33:48;;;;;;;0.9;0.6;;;;;;;3.14;73.4834;915.3973;;;;
2019/12/14 05:36:16;;;;;;;1.5;0.7;;;;;;;3.14;73.96582;915.1158;;;;
2019/12/14 05:39:10;;;;;;;2;0.8;;;;;;;3.32;73.49414;915.1891;;;;
2019/12/14 05:41:32;;;;;;;1.3;0.8;;;;;;;3.46;72.81934;915.315;;;;
2019/12/14 05:44:00;;;;;;;1.1;0.7;;;;;;;3.48;72.91406;915.315;;;;
2019/12/14 05:46:26;;;;;;;1.5;0.7;;;;;;;3.55;71.95898;915.2141;;;;
2019/12/14 05:48:51;;;;;;;1.4;0.8;;;;;;;3.63;71.96094;915.1371;;;;
2019/12/14 05:51:18;;;;;;;1.7;0.7;;;;;;;3.74;72.7666;915.1369;;;;
2019/12/14 05:53:49;;;;;;;2;1;;;;;;;3.77;71.88477;915.2303;;;;
2019/12/14 05:56:19;;;;;;;2.6;1.8;;;;;;;3.72;72.33789;915.0834;;;;
2019/12/14 05:58:43;;;;;;;6.3;3.7;;;;;;;3.65;74.16797;915.0214;;;;
2019/12/14 06:01:12;;;;;;;9.9;5.5;;;;;;;3.67;74.7334;915.0269;;;;
2019/12/14 06:03:39;;;;;;;6.1;3.9;;;;;;;3.74;75.41797;915.1234;;;;
2019/12/14 06:06:10;;;;;;;5.7;2.8;;;;;;;3.78;76.30273;915.3052;;;;
2019/12/14 06:08:32;;;;;;;3.6;1.9;;;;;;;3.83;75.43555;915.3533;;;;
2019/12/14 06:10:58;;;;;;;5;2.9;;;;;;;3.79;75.96777;915.3617;;;;
2019/12/14 06:13:28;;;;;;;4.4;2.7;;;;;;;3.81;75.66895;915.6863;;;;
2019/12/14 06:15:58;;;;;;;5.3;2.6;;;;;;;3.87;75.8584;915.7467;;;;
2019/12/14 06:18:26;;;;;;;3.2;1.9;;;;;;;3.88;76.33203;915.6633;;;;
2019/12/14 06:20:50;;;;;;;3.4;1.7;;;;;;;3.94;75.4873;915.7244;;;;
2019/12/14 06:23:20;;;;;;;4.1;1.9;;;;;;;3.98;74.76465;915.7661;;;;
2019/12/14 06:25:55;;;;;;;3.8;2.2;;;;;;;4.12;75.11426;915.4006;;;;
2019/12/14 06:28:25;;;;;;;4.3;2.7;;;;;;;4.18;75.56543;915.4697;;;;
2019/12/14 06:30:53;;;;;;;5.5;3.2;;;;;;;3.96;76.9873;915.5253;;;;
2019/12/14 06:33:20;;;;;;;12.1;4.9;;;;;;;3.87;77.36426;915.4413;;;;
2019/12/14 06:35:43;;;;;;;4.7;2.6;;;;;;;3.68;78.01563;915.6272;;;;
2019/12/14 06:38:10;;;;;;;4.8;2.4;;;;;;;3.8;78.39648;915.5931;;;;
2019/12/14 06:40:40;;;;;;;5;1.9;;;;;;;3.79;77.68848;915.5175;;;;
2019/12/14 06:43:07;;;;;;;4;1.5;;;;;;;3.76;77.85059;915.4933;;;;
2019/12/14 06:45:42;;;;;;;4.1;2;;;;;;;3.52;79.5918;915.4856;;;;
2019/12/14 06:50:35;;;;;;;3.4;1.6;;;;;;;3.47;79.96387;915.728;;;;
2019/12/14 06:53:05;;;;;;;2.3;1.2;;;;;;;3.53;79.97559;915.9866;;;;
2019/12/14 06:55:28;;;;;;;2.1;0.8;;;;;;;3.63;79.16309;916.1805;;;;
2019/12/14 06:57:56;;;;;;;2;0.8;;;;;;;3.74;79.11621;916.0795;;;;
2019/12/14 07:00:25;;;;;;;1.5;0.7;;;;;;;3.65;80.80859;916.2166;;;;
2019/12/14 07:02:55;;;;;;;2.3;0.8;;;;;;;3.88;79.59375;916.2449;;;;
2019/12/14 07:05:21;;;;;;;2;1;;;;;;;4.07;79.69531;916.2078;;;;
2019/12/14 07:07:45;;;;;;;2;1.2;;;;;;;3.68;80.50977;916.2795;;;;
2019/12/14 07:10:16;;;;;;;6.1;3.1;;;;;;;3.77;81.58398;916.2809;;;;
2019/12/14 07:12:46;;;;;;;3.7;1.7;;;;;;;3.85;81.02637;916.2992;;;;
2019/12/14 07:15:13;;;;;;;5.4;2.1;;;;;;;3.65;83.44922;916.595;;;;
2019/12/14 07:18:15;;;;;;;3.3;1.9;;;;;;;3.6;83.37109;916.5176;;;;
2019/12/14 07:20:33;;;;;;;4.6;2;;;;;;;3.83;83.59473;916.6842;;;;
2019/12/14 07:23:00;;;;;;;4.5;1.6;;;;;;;3.84;82.44043;916.6503;;;;
2019/12/14 07:25:29;;;;;;;3.7;1.6;;;;;;;3.62;83.26172;916.5911;;;;
2019/12/14 07:27:54;;;;;;;8.4;2;;;;;;;3.63;84.03906;916.6447;;;;
2019/12/14 07:30:22;;;;;;;4;1.5;;;;;;;3.66;83.59473;916.525;;;;
2019/12/14 07:32:50;;;;;;;4.5;3;;;;;;;3.54;83.77441;916.5114;;;;
2019/12/14 07:35:18;;;;;;;3.5;2.1;;;;;;;3.55;83.94629;916.5853;;;;
2019/12/14 07:37:46;;;;;;;5.1;2.1;;;;;;;3.75;83.98535;916.7288;;;;
2019/12/14 07:40:09;;;;;;;4.7;2.5;;;;;;;3.77;83.52832;916.7752;;;;
2019/12/14 07:42:40;;;;;;;3.9;2;;;;;;;3.94;83.11035;916.7297;;;;
2019/12/14 07:45:02;;;;;;;4.7;2.1;;;;;;;4.12;83.21484;916.8376;;;;
2019/12/14 07:47:35;;;;;;;6.1;2.6;;;;;;;4.11;83.50586;916.8896;;;;
2019/12/14 07:50:11;;;;;;;3.4;1.8;;;;;;;4.03;83.29688;916.8881;;;;
2019/12/14 07:52:35;;;;;;;2.6;1.4;;;;;;;3.96;83.99219;916.9462;;;;
2019/12/14 07:55:04;;;;;;;2.4;1.5;;;;;;;4.02;84.38574;917.1464;;;;
2019/12/14 07:57:31;;;;;;;2.9;1.9;;;;;;;4.05;83.79883;917.3881;;;;
2019/12/14 07:59:57;;;;;;;1.6;1.1;;;;;;;4.06;83.28125;917.296;;;;
2019/12/14 08:02:36;;;;;;;4.7;2.7;;;;;;;4.15;83.27637;917.507;;;;
2019/12/14 08:04:55;;;;;;;1.9;1.3;;;;;;;4.1;83.95215;917.3951;;;;
2019/12/14 08:07:27;;;;;;;17;10.7;;;;;;;4.17;83.84277;917.5793;;;;
2019/12/14 08:09:59;;;;;;;3.4;2.2;;;;;;;4.36;84.10449;917.4763;;;;
2019/12/14 08:12:27;;;;;;;8.6;3.7;;;;;;;4.51;83.30176;917.4267;;;;
2019/12/14 08:14:56;;;;;;;7.4;4.3;;;;;;;4.4;84.22656;917.6677;;;;
2019/12/14 08:17:32;;;;;;;16.7;11.1;;;;;;;4.49;84.23242;917.3605;;;;
2019/12/14 08:20:03;;;;;;;6.8;4.3;;;;;;;4.42;84.48828;917.642;;;;
2019/12/14 08:22:28;;;;;;;6.7;3.7;;;;;;;4.64;83.41699;917.6426;;;;
2019/12/14 08:25:00;;;;;;;6.7;3.8;;;;;;;4.72;82.55566;917.7922;;;;
2019/12/14 08:27:34;;;;;;;4.4;2.7;;;;;;;4.61;83.38867;917.593;;;;
2019/12/14 08:30:04;;;;;;;13.5;10.9;;;;;;;4.59;83.80176;917.7662;;;;
2019/12/14 08:32:36;;;;;;;5.7;2.9;;;;;;;4.83;82.73438;917.8128;;;;
2019/12/14 08:35:08;;;;;;;8.3;6;;;;;;;4.89;83.00391;917.9442;;;;
2019/12/14 08:37:42;;;;;;;7.8;6.1;;;;;;;5.11;82.12207;918.0748;;;;
2019/12/14 08:40:13;;;;;;;4.3;3.3;;;;;;;5.23;81.24414;917.9185;;;;
2019/12/14 08:42:40;;;;;;;5.4;3.2;;;;;;;5.48;80.34277;917.9241;;;;
2019/12/14 08:45:06;;;;;;;5.9;3.1;;;;;;;5.54;80.15137;917.8164;;;;
2019/12/14 08:47:34;;;;;;;19.7;16;;;;;;;5.72;80.0498;918.0628;;;;
2019/12/14 08:50:05;;;;;;;6;3.9;;;;;;;5.72;79.99316;917.9326;;;;
2019/12/14 08:52:40;;;;;;;7.1;4.4;;;;;;;5.54;80.35449;918.0438;;;;
2019/12/14 08:57:56;;;;;;;3.8;2.4;;;;;;;5.47;81.18848;918.22;;;;
2019/12/14 09:00:27;;;;;;;8.9;4.4;;;;;;;5.73;81.46094;918.4647;;;;
2019/12/14 09:02:59;;;;;;;9.2;6.3;;;;;;;5.94;80.71289;918.4736;;;;
2019/12/14 09:05:21;;;;;;;8;4.1;;;;;;;5.87;80.13281;918.6103;;;;
2019/12/14 09:07:54;;;;;;;5.6;3.5;;;;;;;5.96;80.07129;918.5336;;;;
2019/12/14 09:10:21;;;;;;;4.9;3;;;;;;;6.11;79.66992;918.6404;;;;
2019/12/14 09:12:50;;;;;;;9.2;2.9;;;;;;;5.83;80.57813;919.007;;;;
2019/12/14 09:15:23;;;;;;;1.8;1.2;;;;;;;5.46;80.20508;918.8467;;;;
2019/12/14 09:18:10;;;;;;;2.6;1.8;;;;;;;5.3;82.9707;918.9952;;;;
2019/12/14 09:20:17;;;;;;;3.9;2.3;;;;;;;5.2;83.96582;919.175;;;;
2019/12/14 09:22:44;;;;;;;7.4;2.2;;;;;;;5.42;83.53516;919.546;;;;
2019/12/14 09:25:18;;;;;;;1.8;1.1;;;;;;;5.49;84.38574;919.358;;;;
2019/12/14 09:27:46;;;;;;;1;0.7;;;;;;;5.9;83.52832;919.7888;;;;
2019/12/14 09:30:09;;;;;;;2.9;1.2;;;;;;;6.21;82.74023;919.6333;;;;
2019/12/14 09:32:33;;;;;;;2.1;1.7;;;;;;;6.08;83.90234;919.5403;;;;
2019/12/14 09:34:59;;;;;;;1.7;0.9;;;;;;;6.3;83.66406;919.6305;;;;
2019/12/14 09:38:12;;;;;;;1.5;1;;;;;;;6.62;81.54102;919.6088;;;;
2019/12/14 09:40:36;;;;;;;2.3;1.8;;;;;;;6.97;80.78125;919.5916;;;;
2019/12/14 09:43:06;;;;;;;3;1.4;;;;;;;6.92;80.4873;919.7367;;;;
2019/12/14 09:45:35;;;;;;;4.3;2.3;;;;;;;6.96;80.08887;919.666;;;;
2019/12/14 09:48:01;;;;;;;3.1;1.7;;;;;;;6.91;80.49707;919.6467;;;;
2019/12/14 09:50:26;;;;;;;2.9;1.5;;;;;;;7.03;79.58105;919.7758;;;;
2019/12/14 09:52:51;;;;;;;3.6;1.9;;;;;;;7.16;79.21973;919.7748;;;;
2019/12/14 09:55:18;;;;;;;11.8;3.4;;;;;;;7.36;79.75684;919.8264;;;;
2019/12/14 09:57:46;;;;;;;4.2;2.1;;;;;;;7.31;78.2168;919.891;;;;
2019/12/14 10:00:11;;;;;;;5.8;2.6;;;;;;;7.33;78.88867;919.9051;;;;
2019/12/14 10:02:38;;;;;;;4.5;2.5;;;;;;;7.49;79.46289;920.0045;;;;
2019/12/14 10:05:04;;;;;;;3.8;1.5;;;;;;;7.55;80.38086;920.0206;;;;
2019/12/14 10:07:34;;;;;;;3.7;1;;;;;;;7.67;80.90234;920.0412;;;;
2019/12/14 10:10:00;;;;;;;2.7;1.1;;;;;;;7.75;80.30469;920.0951;;;;
2019/12/14 10:12:34;;;;;;;2.6;0.8;;;;;;;7.72;80.94531;920.2292;;;;
2019/12/14 10:15:02;;;;;;;5.6;1.1;;;;;;;7.82;80.91992;920.2776;;;;
2019/12/14 10:17:25;;;;;;;7.7;1.3;;;;;;;8.01;80.52246;920.4296;;;;
2019/12/14 10:19:51;;;;;;;2.6;1.1;;;;;;;8.06;79.86328;920.5364;;;;
2019/12/14 10:22:20;;;;;;;6.5;1.3;;;;;;;7.98;80.41699;920.4877;;;;
2019/12/14 10:24:45;;;;;;;3.1;1.1;;;;;;;8.08;79.91309;920.4775;;;;
2019/12/14 10:27:13;;;;;;;6.4;2.7;;;;;;;8.16;79.87207;920.5884;;;;
2019/12/14 10:29:41;;;;;;;3.6;2.1;;;;;;;8.14;79.73047;920.7701;;;;
2019/12/14 10:32:13;;;;;;;6;2.2;;;;;;;8.11;80.57715;920.9116;;;;
2019/12/14 10:34:45;;;;;;;3.1;2.1;;;;;;;8.08;79.51465;921.0142;;;;
2019/12/14 10:37:11;;;;;;;4.8;2;;;;;;;8.25;79.44434;921.0714;;;;
2019/12/14 10:39:40;;;;;;;4.9;1.9;;;;;;;8.24;79.99902;921.05;;;;
2019/12/14 10:42:07;;;;;;;2.6;1.5;;;;;;;8.05;78.63477;921.0541;;;;
2019/12/14 10:44:35;;;;;;;3.5;1.3;;;;;;;7.91;77.54395;921.0803;;;;
2019/12/14 10:46:59;;;;;;;2.8;1.2;;;;;;;7.67;78.03125;921.223;;;;
2019/12/14 10:49:25;;;;;;;3.8;1.5;;;;;;;7.53;77.9502;921.2277;;;;
2019/12/14 10:51:53;;;;;;;1.7;1;;;;;;;7.55;78.75977;921.3233;;;;
2019/12/14 10:54:19;;;;;;;4.1;2;;;;;;;7.86;80.22363;921.2994;;;;
2019/12/14 10:56:47;;;;;;;3.2;1.7;;;;;;;8.21;79.20801;921.3419;;;;
2019/12/14 10:59:21;;;;;;;3.7;1.9;;;;;;;8.44;77.99023;921.3492;;;;
2019/12/14 11:04:24;;;;;;;11.9;7.8;;;;;;;8.84;78.02832;921.5367;;;;
2019/12/14 11:06:46;;;;;;;11.5;5.4;;;;;;;8.62;78.5918;921.6039;;;;
2019/12/14 11:09:15;;;;;;;3.3;1.8;;;;;;;8.39;76.91406;921.5302;;;;
2019/12/14 11:11:39;;;;;;;4.1;1.9;;;;;;;8.2;78.58203;921.5616;;;;
2019/12/14 11:14:11;;;;;;;4.5;2.5;;;;;;;8.32;77.60547;921.4244;;;;
2019/12/14 11:16:43;;;;;;;6.5;2.8;;;;;;;8.69;78.08203;921.3421;;;;
2019/12/14 11:19:49;;;;;;;4.4;2.2;;;;;;;8.77;77.94824;921.6047;;;;
2019/12/14 11:22:29;;;;;;;6.7;2;;;;;;;8.79;78.64746;921.752;;;;
2019/12/14 11:24:56;;;;;;;5.2;1.5;;;;;;;8.61;78.81738;921.9014;;;;
2019/12/14 11:27:23;;;;;;;3.7;2.8;;;;;;;8.23;76.74902;921.9064;;;;
2019/12/14 11:29:53;;;;;;;4.4;2.7;;;;;;;8.18;78.83008;922.0041;;;;
2019/12/14 11:32:24;;;;;;;5.3;3.5;;;;;;;8.33;79.08398;922.0078;;;;
2019/12/14 11:34:47;;;;;;;5.8;3.5;;;;;;;8.66;77.41602;921.9796;;;;
2019/12/14 11:37:13;;;;;;;9.4;5.1;;;;;;;9.17;75.45996;921.7299;;;;
2019/12/14 11:39:44;;;;;;;8.5;5.4;;;;;;;9.48;74.60254;921.791;;;;
2019/12/14 11:42:15;;;;;;;8.5;5.1;;;;;;;9.76;73.0791;921.7682;;;;
2019/12/14 11:44:40;;;;;;;9.5;5.8;;;;;;;9.72;73.60742;921.776;;;;
2019/12/14 11:47:10;;;;;;;5.5;3.9;;;;;;;9.55;73.19238;921.8797;;;;
2019/12/14 11:49:36;;;;;;;5.5;3.5;;;;;;;9.66;73.33496;921.912;;;;
2019/12/14 11:52:10;;;;;;;8.3;4;;;;;;;9.88;72.13965;922.0037;;;;
2019/12/14 11:54:46;;;;;;;6.8;4;;;;;;;9.87;71.49023;921.9943;;;;
2019/12/14 11:57:11;;;;;;;7.1;4.2;;;;;;;9.27;73.23438;922.0856;;;;
2019/12/14 11:59:36;;;;;;;7.3;4.4;;;;;;;8.76;74.81836;921.8992;;;;
2019/12/14 12:02:02;;;;;;;9.6;4.5;;;;;;;8.74;76.14746;921.92;;;;
2019/12/14 12:04:32;;;;;;;12.8;7.5;;;;;;;8.66;76.17676;922.1461;;;;
2019/12/14 12:07:02;;;;;;;18.6;14.9;;;;;;;8.74;76.51074;922.2881;;;;
2019/12/14 12:09:27;;;;;;;14.7;9.3;;;;;;;8.75;76.93164;922.423;;;;
2019/12/14 12:11:53;;;;;;;20.4;15.3;;;;;;;8.87;77.18164;922.5681;;;;
2019/12/14 12:14:28;;;;;;;24.1;16.1;;;;;;;9.25;74.65625;922.4725;;;;
2019/12/14 12:16:55;;;;;;;15.9;9.2;;;;;;;9.64;72.95508;922.2912;;;;
2019/12/14 12:19:19;;;;;;;8.2;4.9;;;;;;;9.77;70.42383;922.1456;;;;
2019/12/14 12:21:53;;;;;;;9.4;5.7;;;;;;;9.67;71.28516;922.2964;;;;
2019/12/14 12:24:23;;;;;;;10.1;5.2;;;;;;;9.68;71.06055;922.2216;;;;
2019/12/14 12:26:56;;;;;;;6.1;3.7;;;;;;;9.37;70.83691;922.3409;;;;
2019/12/14 12:29:27;;;;;;;8.9;4.5;;;;;;;9.28;73.11035;922.3627;;;;
2019/12/14 12:32:04;;;;;;;9;4.3;;;;;;;9.39;73.4248;922.2406;;;;
2019/12/14 12:34:33;;;;;;;10.5;4.9;;;;;;;9.22;74.60449;922.4872;;;;
2019/12/14 12:36:59;;;;;;;7.9;5;;;;;;;9.07;74.26074;922.6624;;;;
2019/12/14 12:39:24;;;;;;;18.4;12.7;;;;;;;8.72;75.60938;922.7453;;;;
2019/12/14 12:41:53;;;;;;;21.2;14.2;;;;;;;8.79;76.15332;922.6543;;;;
2019/12/14 12:44:18;;;;;;;7;5.2;;;;;;;8.92;75.56348;922.6082;;;;
2019/12/14 12:46:47;;;;;;;13.6;8.8;;;;;;;8.95;76.98047;922.7181;;;;
2019/12/14 12:49:17;;;;;;;6.5;3.6;;;;;;;8.96;75.94531;922.8148;;;;
2019/12/14 12:51:42;;;;;;;5.5;3.6;;;;;;;8.89;74.33008;922.8536;;;;
2019/12/14 12:54:17;;;;;;;8.1;5.4;;;;;;;8.97;75.70898;922.9188;;;;
2019/12/14 12:56:44;;;;;;;5;3.2;;;;;;;9;74.66895;922.6652;;;;
2019/12/14 12:59:15;;;;;;;6.8;4.1;;;;;;;8.74;77.47559;923.0198;;;;
2019/12/14 13:01:48;;;;;;;8.2;4.6;;;;;;;8.78;76.27734;922.9877;;;;
2019/12/14 13:05:15;;;;;;;10.2;5.9;;;;;;;8.71;77.36914;923.1382;;;;
2019/12/14 13:06:50;;;;;;;12.9;7.6;;;;;;;8.81;77.45605;923.1567;;;;
2019/12/14 13:09:18;;;;;;;8.1;5.2;;;;;;;8.9;76.73145;923.2209;;;;
2019/12/14 13:11:51;;;;;;;10.5;5;;;;;;;8.64;76.98047;923.2062;;;;
2019/12/14 13:14:22;;;;;;;11.7;6.5;;;;;;;8.14;78.57227;923.1697;;;;
2019/12/14 13:17:15;;;;;;;5.6;2.8;;;;;;;8.12;76.04883;923.3822;;;;
2019/12/14 13:19:39;;;;;;;6.2;3.9;;;;;;;8.02;74.98535;923.3353;;;;
2019/12/14 13:22:11;;;;;;;1.9;0.9;;;;;;;8.08;74.81543;923.285;;;;
2019/12/14 13:24:41;;;;;;;4.9;2.7;;;;;;;8.26;69.64355;923.4142;;;;
2019/12/14 13:27:06;;;;;;;3.6;1.2;;;;;;;8.27;69.11133;923.4689;;;;
2019/12/14 13:29:37;;;;;;;4.9;2.8;;;;;;;8.54;72.16797;923.5731;;;;
2019/12/14 13:32:01;;;;;;;7;3.9;;;;;;;8.35;69.0918;923.6836;;;;
2019/12/14 13:35:16;;;;;;;3.1;1.9;;;;;;;8.48;68.74902;923.6069;;;;
2019/12/14 13:37:01;;;;;;;2.5;1.2;;;;;;;8.63;67.37402;923.6903;;;;
2019/12/14 13:39:37;;;;;;;10.3;6.1;;;;;;;8.75;69.59766;923.9497;;;;
2019/12/14 13:42:04;;;;;;;6.7;3.8;;;;;;;8.6;70.05176;924.1146;;;;
2019/12/14 13:44:35;;;;;;;2.6;0.8;;;;;;;8.51;62.51367;924.0358;;;;
2019/12/14 13:47:04;;;;;;;3.1;1.2;;;;;;;8.75;60.05762;924.2869;;;;
2019/12/14 13:49:30;;;;;;;4.1;1.4;;;;;;;8.59;64.06055;924.4392;;;;
2019/12/14 13:52:16;;;;;;;2.6;0.9;;;;;;;8.68;58.58301;924.4445;;;;
2019/12/14 13:54:46;;;;;;;2.3;0.9;;;;;;;8.91;60.41211;924.6425;;;;
2019/12/14 13:57:16;;;;;;;3.3;1.7;;;;;;;8.79;63.0332;924.9802;;;;
2019/12/14 13:59:53;;;;;;;2.1;0.9;;;;;;;8.62;63.40527;924.9319;;;;
2019/12/14 14:02:17;;;;;;;3.4;1.5;;;;;;;8.34;62.90918;925.1047;;;;
2019/12/14 14:04:49;;;;;;;2.5;0.8;;;;;;;8.31;61.74805;925.1473;;;;
2019/12/14 14:07:21;;;;;;;2.6;1.2;;;;;;;8.39;60.40625;925.16;;;;
2019/12/14 14:10:19;;;;;;;2.5;0.8;;;;;;;8.48;61.03125;925.3162;;;;
2019/12/14 14:12:52;;;;;;;1.8;0.8;;;;;;;8.49;59.96582;925.1694;;;;
2019/12/14 14:15:20;;;;;;;4.1;0.9;;;;;;;8.51;61.34375;925.1789;;;;
2019/12/14 14:17:49;;;;;;;4.1;2.5;;;;;;;8.37;60.75488;925.2141;;;;
2019/12/14 14:20:14;;;;;;;7.9;1.4;;;;;;;8.3;64.69922;925.4788;;;;
2019/12/14 14:22:44;;;;;;;2.2;0.9;;;;;;;8.33;63.91797;925.5668;;;;
2019/12/14 14:25:08;;;;;;;2.4;0.7;;;;;;;8.46;58.94922;925.5455;;;;
2019/12/14 14:27:33;;;;;;;2.6;0.9;;;;;;;8.67;55.73926;925.4545;;;;
2019/12/14 14:30:05;;;;;;;3;1.2;;;;;;;8.59;58.6377;925.6236;;;;
2019/12/14 14:32:40;;;;;;;3.5;2.1;;;;;;;8.34;59.17188;925.7463;;;;
2019/12/14 14:35:18;;;;;;;3.3;1.4;;;;;;;8.55;58.89355;925.8102;;;;
2019/12/14 14:37:43;;;;;;;2.9;1.4;;;;;;;8.48;55.68066;925.4773;;;;
2019/12/14 14:40:19;;;;;;;3.7;1.4;;;;;;;8.55;57.48438;925.669;;;;
2019/12/14 14:43:36;;;;;;;2.4;1;;;;;;;8.04;62.58105;925.748;;;;
2019/12/14 14:45:52;;;;;;;3.1;1.5;;;;;;;8.04;60.52637;925.7932;;;;
2019/12/14 14:48:28;;;;;;;4.7;1.5;;;;;;;8.05;60.31348;925.7527;;;;
2019/12/14 14:50:56;;;;;;;3.7;1.1;;;;;;;7.92;63.14258;925.8239;;;;
2019/12/14 14:53:23;;;;;;;3.3;1.2;;;;;;;7.73;65.28223;925.7802;;;;
2019/12/14 14:55:55;;;;;;;4.6;1.1;;;;;;;7.5;65.20117;925.9358;;;;
2019/12/14 14:58:27;;;;;;;3.7;1.6;;;;;;;7.56;62.14844;925.7957;;;;
2019/12/14 15:01:16;;;;;;;3.7;1.6;;;;;;;7.72;59.92676;925.7841;;;;
2019/12/14 15:03:41;;;;;;;5.9;2.3;;;;;;;7.52;62.2002;925.9533;;;;
2019/12/14 15:06:05;;;;;;;11.5;6.9;;;;;;;7.46;64.52637;926.0142;;;;
2019/12/14 15:08:37;;;;;;;5.5;2.8;;;;;;;7.57;62.00488;925.9961;;;;
2019/12/14 15:11:10;;;;;;;6;2.5;;;;;;;7.55;63.35059;925.8836;;;;
2019/12/14 15:13:37;;;;;;;4.9;2.5;;;;;;;7.43;62.75391;925.9864;;;;
2019/12/14 15:16:07;;;;;;;4.9;1.4;;;;;;;7.37;63.96973;926.0621;;;;
2019/12/14 15:18:42;;;;;;;6.5;1.7;;;;;;;7.45;60.86426;925.954;;;;
2019/12/14 15:21:14;;;;;;;3.6;1.6;;;;;;;7.61;60.59082;926.0508;;;;
2019/12/14 15:23:44;;;;;;;7.1;3.9;;;;;;;7.61;60.47754;926.272;;;;
2019/12/14 15:26:06;;;;;;;11.8;5.3;;;;;;;7.56;56.08301;926.0341;;;;
2019/12/14 15:28:32;;;;;;;32.2;19.5;;;;;;;7.38;63.94824;926.1872;;;;
2019/12/14 15:31:03;;;;;;;6;2.7;;;;;;;7.22;64.13965;926.2914;;;;
2019/12/14 15:33:31;;;;;;;5.6;1.9;;;;;;;7.03;64.73438;926.293;;;;
2019/12/14 15:36:00;;;;;;;3.6;1.4;;;;;;;7.04;58.87988;926.2178;;;;
2019/12/14 15:38:19;;;;;;;5.7;2;;;;;;;7.31;59.94824;926.2972;;;;
2019/12/14 15:40:46;;;;;;;4.6;2;;;;;;;7.41;59.81543;926.1797;;;;
2019/12/14 15:43:14;;;;;;;6.7;2.1;;;;;;;7.5;62.19727;926.331;;;;
2019/12/14 15:45:40;;;;;;;9;4.5;;;;;;;7.39;62.36426;926.3162;;;;
2019/12/14 15:48:14;;;;;;;5.5;2.2;;;;;;;7.23;61.97656;926.2692;;;;
2019/12/14 15:50:36;;;;;;;8.1;4;;;;;;;7.3;62.36133;926.3478;;;;
2019/12/14 15:53:08;;;;;;;4.7;2;;;;;;;7.27;56.71387;926.4135;;;;
2019/12/14 15:55:39;;;;;;;4.5;1.5;;;;;;;7.64;57.66895;926.3014;;;;
2019/12/14 15:58:13;;;;;;;4.1;1.7;;;;;;;7.5;58.34277;926.3105;;;;
2019/12/14 16:00:39;;;;;;;3.9;1.5;;;;;;;7.47;60.28906;926.384;;;;
2019/12/14 16:03:19;;;;;;;4.7;2.4;;;;;;;7.45;61.64648;926.4941;;;;
2019/12/14 16:05:51;;;;;;;4.8;1.9;;;;;;;7.36;61.19043;926.4936;;;;
2019/12/14 16:08:16;;;;;;;4.8;1.4;;;;;;;7.56;58.73535;926.4174;;;;
2019/12/14 16:10:43;;;;;;;4.7;2.5;;;;;;;7.59;60.08984;926.3739;;;;